createdAt,value
2023-04-10T00:01:26.307Z,101141.69
2023-04-10T00:03:57.107Z,101151.13
2023-04-10T00:06:28.839Z,101150.34
2023-04-10T00:08:59.121Z,101161.41
2023-04-10T00:11:30.334Z,101170.50
2023-04-10T00:14:00.627Z,101167.28
2023-04-10T00:16:31.233Z,101169.72
2023-04-10T00:19:01.567Z,101177.69
2023-04-10T00:21:31.998Z,101174.13
2023-04-10T00:24:02.269Z,101179.00
2023-04-10T00:26:32.697Z,101197.72
2023-04-10T00:29:03.065Z,101194.63
2023-04-10T00:31:34.514Z,101199.34
2023-04-10T00:34:04.374Z,101198.53
2023-04-10T00:36:35.334Z,101201.63
2023-04-10T00:39:05.735Z,101201.63
2023-04-10T00:41:37.339Z,101200.50
2023-04-10T00:44:07.578Z,101199.66
2023-04-10T00:46:40.989Z,101204.06
2023-04-10T00:49:12.212Z,101204.06
2023-04-10T00:51:44.169Z,101201.78
2023-04-10T00:54:15.148Z,101197.41
2023-04-10T00:56:49.310Z,101203.91
2023-04-10T00:59:20.198Z,101205.38
2023-04-10T01:01:50.722Z,101216.44
2023-04-10T01:04:21.563Z,101220.19
2023-04-10T01:07:12.626Z,101218.56
2023-04-10T01:10:24.355Z,101207.50
2023-04-10T01:13:34.504Z,101216.63
2023-04-10T01:16:27.748Z,101220.19
2023-04-10T01:19:37.277Z,101233.06
2023-04-10T01:22:12.987Z,101232.28
2023-04-10T01:25:11.280Z,101233.56
2023-04-10T01:28:01.657Z,101234.69
2023-04-10T01:30:33.849Z,101240.41
2023-04-10T01:33:05.734Z,101237.63
2023-04-10T01:35:37.918Z,101241.56
2023-04-10T01:38:09.727Z,101238.97
2023-04-10T01:40:42.505Z,101244.81
2023-04-10T01:43:15.512Z,101246.94
2023-04-10T01:45:54.423Z,101243.03
2023-04-10T01:48:24.922Z,101241.56
2023-04-10T01:50:57.644Z,101248.72
2023-04-10T01:53:29.157Z,101249.06
2023-04-10T01:55:59.410Z,101243.19
2023-04-10T01:58:30.142Z,101251.50
2023-04-10T02:01:01.988Z,101252.81
2023-04-10T02:03:32.668Z,101250.53
2023-04-10T02:07:04.619Z,101245.66
2023-04-10T02:09:55.417Z,101243.38
2023-04-10T02:12:39.322Z,101247.28
2023-04-10T02:15:11.144Z,101246.63
2023-04-10T02:17:42.960Z,101251.00
2023-04-10T02:20:14.006Z,101250.69
2023-04-10T02:22:47.943Z,101250.69
2023-04-10T02:25:19.217Z,101252.00
2023-04-10T02:27:49.668Z,101257.53
2023-04-10T02:30:20.941Z,101257.22
2023-04-10T02:32:50.858Z,101259.66
2023-04-10T02:35:21.749Z,101243.03
2023-04-10T02:37:53.114Z,101248.59
2023-04-10T02:40:23.785Z,101260.47
2023-04-10T02:43:14.036Z,101249.09
2023-04-10T02:45:44.263Z,101251.53
2023-04-10T02:48:17.944Z,101254.78
2023-04-10T02:51:00.043Z,101248.09
2023-04-10T02:53:31.839Z,101241.75
2023-04-10T02:56:04.998Z,101245.66
2023-04-10T02:58:35.210Z,101229.34
2023-04-10T03:01:07.820Z,101230.69
2023-04-10T03:03:42.827Z,101232.97
2023-04-10T03:06:14.033Z,101232.31
2023-04-10T03:08:47.347Z,101226.78
2023-04-10T03:11:17.772Z,101231.47
2023-04-10T03:13:48.036Z,101217.28
2023-04-10T03:16:20.919Z,101223.31
2023-04-10T03:18:51.673Z,101222.72
2023-04-10T03:21:22.216Z,101225.97
2023-04-10T03:23:53.020Z,101217.66
2023-04-10T03:26:23.693Z,101217.31
2023-04-10T03:28:54.676Z,101212.63
2023-04-10T03:31:25.319Z,101221.72
2023-04-10T03:33:58.948Z,101225.00
2023-04-10T03:36:29.935Z,101218.00
2023-04-10T03:39:00.227Z,101214.06
2023-04-10T03:41:30.551Z,101206.91
2023-04-10T03:44:00.969Z,101208.06
2023-04-10T03:46:32.003Z,101206.09
2023-04-10T03:49:03.357Z,101207.72
2023-04-10T03:51:35.837Z,101197.94
2023-04-10T03:54:06.224Z,101201.53
2023-04-10T03:56:36.992Z,101208.69
2023-04-10T03:59:07.406Z,101195.66
2023-04-10T04:01:43.186Z,101193.38
2023-04-10T04:04:14.584Z,101180.66
2023-04-10T04:07:07.412Z,101190.09
2023-04-10T04:10:16.144Z,101180.66
2023-04-10T04:13:05.074Z,101175.09
2023-04-10T04:15:52.036Z,101168.41
2023-04-10T04:18:57.365Z,101160.94
2023-04-10T04:21:41.450Z,101155.41
2023-04-10T04:24:43.602Z,101155.06
2023-04-10T04:27:20.410Z,101150.81
2023-04-10T04:30:06.209Z,101146.56
2023-04-10T04:32:48.677Z,101139.06
2023-04-10T04:35:29.451Z,101137.56
2023-04-10T04:38:38.166Z,101128.81
2023-04-10T04:41:11.678Z,101129.59
2023-04-10T04:44:05.159Z,101123.56
2023-04-10T04:47:04.215Z,101127.97
2023-04-10T04:49:53.011Z,101120.13
2023-04-10T04:52:43.224Z,101105.91
2023-04-10T04:55:24.580Z,101102.84
2023-04-10T04:58:01.039Z,101105.59
2023-04-10T05:00:44.610Z,101091.88
2023-04-10T05:03:46.312Z,101096.28
2023-04-10T05:06:30.261Z,101087.16
2023-04-10T05:09:20.686Z,101083.22
2023-04-10T05:12:26.234Z,101077.38
2023-04-10T05:15:01.779Z,101070.69
2023-04-10T05:18:04.183Z,101067.56
2023-04-10T05:20:46.433Z,101056.97
2023-04-10T05:23:35.161Z,101053.34
2023-04-10T05:26:24.040Z,101043.59
2023-04-10T05:29:14.444Z,101043.59
2023-04-10T05:32:02.897Z,101041.63
2023-04-10T05:34:56.090Z,101033.78
2023-04-10T05:37:47.719Z,101030.72
2023-04-10T05:40:36.494Z,101018.44
2023-04-10T05:43:45.379Z,101018.44
2023-04-10T05:46:26.180Z,101012.22
2023-04-10T05:49:20.464Z,101006.69
2023-04-10T05:52:11.078Z,101010.94
2023-04-10T05:55:01.273Z,101006.22
2023-04-10T05:57:34.927Z,100997.22
2023-04-10T06:00:23.598Z,100992.03
2023-04-10T06:03:26.338Z,100981.72
2023-04-10T06:06:02.959Z,100970.63
2023-04-10T06:08:34.397Z,100968.69
2023-04-10T06:11:05.144Z,100964.44
2023-04-10T06:13:35.888Z,100953.81
2023-04-10T06:16:06.831Z,100946.28
2023-04-10T06:18:37.299Z,100949.22
2023-04-10T06:21:07.976Z,100938.59
2023-04-10T06:23:39.649Z,100931.56
2023-04-10T06:26:10.145Z,100928.31
2023-04-10T06:28:40.632Z,100923.91
2023-04-10T06:31:11.626Z,100921.28
2023-04-10T06:33:42.000Z,100899.78
2023-04-10T06:36:13.729Z,100906.59
2023-04-10T06:38:56.470Z,100899.44
2023-04-10T06:41:27.027Z,100899.09
2023-04-10T06:46:30.668Z,100891.22
2023-04-10T06:49:00.895Z,100885.69
2023-04-10T06:51:31.687Z,100876.69
2023-04-10T06:54:02.072Z,100867.56
2023-04-10T06:56:32.824Z,100863.63
2023-04-10T06:59:03.152Z,100854.63
2023-04-10T07:01:33.966Z,100852.22
2023-04-10T07:04:04.332Z,100849.56
2023-04-10T07:06:34.943Z,100837.66
2023-04-10T07:09:05.069Z,100834.41
2023-04-10T07:11:35.498Z,100836.16
2023-04-10T07:14:05.716Z,100824.25
2023-04-10T07:16:36.073Z,100821.13
2023-04-10T07:19:06.493Z,100819.63
2023-04-10T07:21:36.831Z,100810.97
2023-04-10T07:24:07.252Z,100807.84
2023-04-10T07:26:37.693Z,100805.56
2023-04-10T07:29:08.091Z,100794.47
2023-04-10T07:31:38.656Z,100795.59
2023-04-10T07:34:09.174Z,100780.94
2023-04-10T07:36:39.423Z,100785.31
2023-04-10T07:39:09.725Z,100778.28
2023-04-10T07:41:40.061Z,100777.94
2023-04-10T07:44:10.390Z,100774.81
2023-04-10T07:46:41.438Z,100777.59
2023-04-10T07:49:11.642Z,100770.44
2023-04-10T07:51:42.006Z,100766.50
2023-04-10T07:54:12.406Z,100766.16
2023-04-10T07:56:43.526Z,100748.56
2023-04-10T07:59:14.535Z,100756.56
2023-04-10T08:01:45.088Z,100755.72
2023-04-10T08:04:15.625Z,100749.50
2023-04-10T08:06:46.022Z,100740.03
2023-04-10T08:09:16.255Z,100735.28
2023-04-10T08:11:46.657Z,100736.13
2023-04-10T08:14:18.175Z,100727.44
2023-04-10T08:16:48.850Z,100726.75
2023-04-10T08:19:19.177Z,100718.06
2023-04-10T08:21:49.474Z,100715.66
2023-04-10T08:24:22.508Z,100721.22
2023-04-10T08:26:52.865Z,100720.53
2023-04-10T08:31:54.255Z,100710.56
2023-04-10T08:34:26.798Z,100706.19
2023-04-10T08:36:57.513Z,100706.19
2023-04-10T08:39:27.949Z,100699.13
2023-04-10T08:41:58.475Z,100695.09
2023-04-10T08:44:28.755Z,100691.16
2023-04-10T08:47:02.945Z,100694.41
2023-04-10T08:50:06.584Z,100686.19
2023-04-10T08:52:40.658Z,100687.34
2023-04-10T08:55:13.853Z,100673.34
2023-04-10T08:57:50.868Z,100682.94
2023-04-10T09:00:28.757Z,100685.72
2023-04-10T09:03:00.947Z,100672.31
2023-04-10T09:05:32.686Z,100675.44
2023-04-10T09:08:03.344Z,100678.22
2023-04-10T09:10:33.986Z,100673.13
2023-04-10T09:13:04.324Z,100676.34
2023-04-10T09:16:03.757Z,100674.03
2023-04-10T09:18:46.011Z,100679.59
2023-04-10T09:21:18.762Z,100675.66
2023-04-10T09:23:50.522Z,100670.56
2023-04-10T09:26:32.705Z,100670.56
2023-04-10T09:29:14.854Z,100669.03
2023-04-10T09:31:51.373Z,100671.03
2023-04-10T09:34:23.980Z,100674.16
2023-04-10T09:37:04.090Z,100672.66
2023-04-10T09:39:45.431Z,100659.56
2023-04-10T09:42:16.715Z,100670.66
2023-04-10T09:44:47.112Z,100668.72
2023-04-10T09:47:42.568Z,100664.78
2023-04-10T09:50:45.971Z,100666.41
2023-04-10T09:53:18.918Z,100671.97
2023-04-10T09:55:53.647Z,100671.97
2023-04-10T09:58:25.184Z,100674.28
2023-04-10T10:00:56.214Z,100673.13
2023-04-10T10:03:28.260Z,100672.28
2023-04-10T10:05:58.857Z,100679.13
2023-04-10T10:08:30.437Z,100671.97
2023-04-10T10:11:03.271Z,100669.66
2023-04-10T10:13:50.742Z,100667.09
2023-04-10T10:17:02.332Z,100674.72
2023-04-10T10:19:51.800Z,100677.50
2023-04-10T10:22:23.401Z,100675.06
2023-04-10T10:24:59.018Z,100674.28
2023-04-10T10:27:31.295Z,100671.81
2023-04-10T10:30:11.955Z,100675.75
2023-04-10T10:32:43.663Z,100670.56
2023-04-10T10:35:14.023Z,100680.50
2023-04-10T10:37:45.256Z,100677.28
2023-04-10T10:40:30.162Z,100681.19
2023-04-10T10:43:25.113Z,100669.31
2023-04-10T10:46:06.580Z,100679.59
2023-04-10T10:48:36.983Z,100679.59
2023-04-10T10:51:07.370Z,100689.88
2023-04-10T10:53:47.109Z,100679.47
2023-04-10T10:56:25.833Z,100684.66
2023-04-10T10:58:59.967Z,100692.09
2023-04-10T11:01:30.475Z,100697.63
2023-04-10T11:04:02.491Z,100697.63
2023-04-10T11:07:05.851Z,100699.94
2023-04-10T11:09:55.951Z,100712.66
2023-04-10T11:12:27.878Z,100712.19
2023-04-10T11:15:03.366Z,100714.97
2023-04-10T11:17:53.259Z,100713.72
2023-04-10T11:20:31.285Z,100715.31
2023-04-10T11:23:13.453Z,100716.03
2023-04-10T11:25:58.148Z,100725.59
2023-04-10T11:28:39.510Z,100736.25
2023-04-10T11:31:39.450Z,100737.84
2023-04-10T11:34:11.385Z,100738.53
2023-04-10T11:36:43.998Z,100740.16
2023-04-10T11:39:21.213Z,100741.78
2023-04-10T11:41:53.808Z,100739.69
2023-04-10T11:44:33.640Z,100746.38
2023-04-10T11:47:04.308Z,100756.34
2023-04-10T11:49:36.797Z,100768.56
2023-04-10T11:52:07.514Z,100768.56
2023-04-10T11:54:40.048Z,100772.50
2023-04-10T11:57:12.292Z,100779.66
2023-04-10T11:59:42.623Z,100781.16
2023-04-10T12:02:17.560Z,100784.31
2023-04-10T12:04:48.041Z,100780.22
2023-04-10T12:07:18.645Z,100783.38
2023-04-10T12:09:49.384Z,100790.06
2023-04-10T12:12:19.973Z,100791.69
2023-04-10T12:14:50.981Z,100796.28
2023-04-10T12:17:21.112Z,100808.22
2023-04-10T12:19:51.848Z,100809.00
2023-04-10T12:22:22.588Z,100813.63
2023-04-10T12:24:55.054Z,100817.09
2023-04-10T12:27:30.404Z,100827.84
2023-04-10T12:30:01.566Z,100832.13
2023-04-10T12:32:31.576Z,100825.75
2023-04-10T12:35:03.702Z,100840.44
2023-04-10T12:37:56.872Z,100843.22
2023-04-10T12:40:27.191Z,100850.69
2023-04-10T12:42:57.571Z,100845.50
2023-04-10T12:45:47.834Z,100851.72
2023-04-10T12:48:26.677Z,100874.41
2023-04-10T12:50:56.991Z,100871.50
2023-04-10T12:53:28.567Z,100871.50
2023-04-10T12:56:08.805Z,100869.03
2023-04-10T12:58:39.470Z,100874.94
2023-04-10T13:01:16.640Z,100880.50
2023-04-10T13:03:49.101Z,100886.34
2023-04-10T13:06:19.474Z,100882.13
2023-04-10T13:08:49.761Z,100879.66
2023-04-10T13:11:20.270Z,100887.97
2023-04-10T13:13:51.002Z,100887.50
2023-04-10T13:16:21.429Z,100901.38
2023-04-10T14:54:26.723Z,100978.91
2023-04-10T14:56:56.849Z,100985.81
2023-04-10T14:59:27.249Z,100983.66
2023-04-10T15:01:57.751Z,100985.28
2023-04-10T15:04:28.242Z,100985.75
2023-04-10T15:06:59.089Z,100986.91
2023-04-10T15:09:29.861Z,100998.66
2023-04-10T15:12:00.218Z,100997.50
2023-04-10T15:14:30.440Z,100997.84
2023-04-10T15:17:00.880Z,101005.53
2023-04-10T15:19:31.207Z,101001.00
2023-04-10T15:22:01.665Z,101006.91
2023-04-10T15:24:37.032Z,100999.25
2023-04-10T15:27:13.848Z,101003.97
2023-04-10T15:29:45.733Z,101009.88
2023-04-10T15:32:16.090Z,101002.22
2023-04-10T15:34:47.389Z,100998.78
2023-04-10T15:37:17.750Z,101008.25
2023-04-10T15:39:48.128Z,101009.72
2023-04-10T15:42:19.207Z,101002.22
2023-04-10T15:44:52.334Z,101007.28
2023-04-10T15:47:22.653Z,101010.06
2023-04-10T15:49:52.971Z,101019.69
2023-04-10T15:52:23.388Z,101012.03
2023-04-10T15:54:53.871Z,101005.66
2023-04-10T15:57:24.253Z,101002.06
2023-04-10T15:59:56.246Z,100991.66
2023-04-10T16:02:26.761Z,101000.44
2023-04-10T16:04:57.262Z,100992.47
2023-04-10T16:07:27.757Z,100997.19
2023-04-10T16:10:00.175Z,100996.41
2023-04-10T16:12:30.521Z,100996.22
2023-04-10T16:15:00.836Z,100989.53
2023-04-10T16:17:31.084Z,100996.41
2023-04-10T16:20:02.264Z,100995.25
2023-04-10T16:22:32.561Z,100986.78
2023-04-10T16:27:34.542Z,100991.16
2023-04-10T16:30:04.978Z,100994.28
2023-04-10T16:32:36.482Z,100991.50
2023-04-10T16:35:07.085Z,100984.34
2023-04-10T16:37:37.708Z,100992.19
2023-04-10T16:40:08.990Z,100993.00
2023-04-10T16:42:39.092Z,100992.84
2023-04-10T16:45:10.816Z,100995.44
2023-04-10T16:47:42.790Z,100996.91
2023-04-10T16:50:13.587Z,101000.00
2023-04-10T16:52:44.016Z,100992.03
2023-04-10T16:55:14.254Z,100988.31
2023-04-10T16:57:46.512Z,100993.69
2023-04-10T17:00:17.207Z,100983.09
2023-04-10T17:02:47.665Z,100983.91
2023-04-10T17:05:18.093Z,100974.44
2023-04-10T17:07:48.358Z,100971.31
2023-04-10T17:10:18.843Z,100978.84
2023-04-10T17:12:49.087Z,100968.56
2023-04-10T17:15:19.348Z,100973.78
2023-04-10T17:17:49.585Z,100966.63
2023-04-10T17:20:20.837Z,100959.44
2023-04-10T17:22:50.928Z,100964.31
2023-04-10T17:25:21.134Z,100956.66
2023-04-10T17:27:51.471Z,100958.66
2023-04-10T17:30:21.795Z,100961.88
2023-04-10T17:32:52.304Z,100958.66
2023-04-10T17:35:22.750Z,100957.47
2023-04-10T17:37:53.011Z,100951.47
2023-04-10T17:40:23.432Z,100959.31
2023-04-10T17:42:53.751Z,100958.16
2023-04-10T17:45:23.892Z,100952.47
2023-04-10T17:47:54.706Z,100947.25
2023-04-10T17:50:25.033Z,100944.97
2023-04-10T17:52:55.835Z,100951.31
2023-04-10T17:55:27.196Z,100941.72
2023-04-10T17:58:00.357Z,100944.97
2023-04-10T18:00:30.660Z,100933.88
2023-04-10T18:03:03.434Z,100934.69
2023-04-10T18:05:33.996Z,100934.69
2023-04-10T18:08:04.509Z,100929.97
2023-04-10T18:10:34.755Z,100925.22
2023-04-10T18:13:04.954Z,100930.78
2023-04-10T18:15:35.672Z,100924.75
2023-04-10T18:18:06.157Z,100925.22
2023-04-10T18:20:37.791Z,100932.25
2023-04-10T18:23:08.921Z,100920.34
2023-04-10T18:25:38.934Z,100918.41
2023-04-10T18:28:15.389Z,100919.91
2023-04-10T18:30:46.872Z,100923.94
2023-04-10T18:33:22.942Z,100918.75
2023-04-10T18:35:54.921Z,100921.97
2023-04-10T18:38:25.633Z,100909.28
2023-04-10T18:41:00.464Z,100910.44
2023-04-10T18:43:30.822Z,100908.47
2023-04-10T18:46:01.044Z,100904.91
2023-04-10T18:48:31.333Z,100906.03
2023-04-10T18:51:01.442Z,100900.03
2023-04-10T18:53:31.762Z,100909.13
2023-04-10T18:56:02.181Z,100909.13
2023-04-10T18:58:34.646Z,100907.50
2023-04-10T19:01:04.967Z,100906.34
2023-04-10T19:03:35.594Z,100902.78
2023-04-10T19:06:06.122Z,100911.59
2023-04-10T19:08:36.526Z,100912.72
2023-04-10T19:11:08.809Z,100909.47
2023-04-10T19:13:39.238Z,100906.72
2023-04-10T19:16:11.963Z,100909.00
2023-04-10T19:18:42.607Z,100906.03
2023-04-10T19:21:12.945Z,100911.91
2023-04-10T19:23:43.597Z,100912.25
2023-04-10T19:26:13.761Z,100916.66
2023-04-10T19:28:43.929Z,100911.09
2023-04-10T19:31:14.528Z,100906.84
2023-04-10T19:33:44.790Z,100909.97
2023-04-10T19:36:15.199Z,100899.69
2023-04-10T19:38:50.924Z,100889.41
2023-04-10T19:41:21.292Z,100885.03
2023-04-10T19:43:51.729Z,100881.44
2023-04-10T19:46:23.143Z,100886.66
2023-04-10T19:48:54.330Z,100879.78
2023-04-10T19:51:24.615Z,100883.41
2023-04-10T19:53:54.857Z,100882.25
2023-04-10T19:56:26.409Z,100871.00
2023-04-10T19:58:57.038Z,100872.63
2023-04-10T20:01:27.589Z,100871.00
2023-04-10T20:03:58.269Z,100864.66
2023-04-10T20:06:29.620Z,100862.69
2023-04-10T20:08:59.658Z,100861.41
2023-04-10T20:11:33.012Z,100861.41
2023-04-10T20:14:03.334Z,100859.78
2023-04-10T20:16:33.690Z,100857.03
2023-04-10T20:19:04.134Z,100850.34
2023-04-10T20:21:35.677Z,100859.78
2023-04-10T20:24:06.142Z,100857.66
2023-04-10T20:26:36.864Z,100844.00
2023-04-10T20:29:08.107Z,100845.16
2023-04-10T20:31:38.027Z,100848.72
2023-04-10T20:34:08.229Z,100849.53
2023-04-10T20:36:38.927Z,100848.72
2023-04-10T20:39:09.231Z,100846.41
2023-04-10T20:41:39.485Z,100852.31
2023-04-10T20:44:10.380Z,100839.91
2023-04-10T20:46:40.717Z,100842.03
2023-04-10T20:49:12.704Z,100836.63
2023-04-10T20:51:43.032Z,100837.16
2023-04-10T20:54:14.143Z,100841.53
2023-04-10T20:56:44.480Z,100831.09
2023-04-10T20:59:14.781Z,100842.19
2023-04-10T21:01:45.093Z,100834.56
2023-04-10T21:04:15.483Z,100833.06
2023-04-10T21:06:45.861Z,100827.88
2023-04-10T21:09:15.906Z,100833.88
2023-04-10T21:11:46.289Z,100837.78
2023-04-10T21:14:16.741Z,100836.34
2023-04-10T21:16:48.410Z,100844.94
2023-04-10T21:19:18.842Z,100849.69
2023-04-10T21:21:49.071Z,100847.28
2023-04-10T21:24:19.351Z,100853.13
2023-04-10T21:26:49.720Z,100854.75
2023-04-10T21:29:19.968Z,100857.88
2023-04-10T21:31:50.732Z,100850.69
2023-04-10T21:34:21.071Z,100855.09
2023-04-10T21:36:51.337Z,100860.16
2023-04-10T21:39:21.645Z,100865.69
2023-04-10T21:41:51.873Z,100872.38
2023-04-10T21:44:22.177Z,100860.94
2023-04-10T21:46:52.476Z,100869.59
2023-04-10T21:49:22.966Z,100869.59
2023-04-10T21:51:53.217Z,100880.69
2023-04-10T21:54:23.517Z,100878.22
2023-04-10T21:56:53.822Z,100883.13
2023-04-10T21:59:24.156Z,100885.75
2023-04-10T22:01:54.643Z,100881.69
2023-04-10T22:04:24.862Z,100886.22
2023-04-10T22:06:55.162Z,100890.13
2023-04-10T22:09:25.668Z,100897.97
2023-04-10T22:11:55.902Z,100896.34
2023-04-10T22:14:28.185Z,100895.19
2023-04-10T22:16:59.560Z,100897.97
2023-04-10T22:19:30.038Z,100899.94
2023-04-10T22:22:00.750Z,100901.88
2023-04-10T22:24:30.906Z,100903.50
2023-04-10T22:27:01.044Z,100911.16
2023-04-10T22:29:31.656Z,100911.47
2023-04-10T22:32:01.846Z,100918.63
2023-04-10T22:34:32.846Z,100912.63
2023-04-10T22:37:02.985Z,100920.94
2023-04-10T22:40:57.595Z,100931.81
2023-04-10T22:43:27.952Z,100934.69
2023-04-10T22:45:58.268Z,100931.25
2023-04-10T22:48:29.761Z,100931.72
2023-04-10T22:51:00.080Z,100934.03
2023-04-10T22:53:31.159Z,100932.25
2023-04-10T22:56:01.453Z,100941.06
2023-04-10T22:58:31.729Z,100943.53
2023-04-10T23:01:02.067Z,100949.75
2023-04-10T23:03:32.293Z,100954.97
2023-04-10T23:06:02.615Z,100947.69
2023-04-10T23:08:32.944Z,100951.91
2023-04-10T23:11:03.208Z,100957.94
2023-04-10T23:13:33.409Z,100961.84
2023-04-10T23:16:03.772Z,100966.44
2023-04-10T23:18:34.933Z,100963.31
2023-04-10T23:21:09.977Z,100963.66
2023-04-10T23:23:40.216Z,100968.06
2023-04-10T23:26:10.820Z,100972.47
2023-04-10T23:28:41.366Z,100968.06
2023-04-10T23:31:11.472Z,100973.59
2023-04-10T23:33:41.721Z,100982.72
2023-04-10T23:36:12.245Z,100995.75
2023-04-10T23:38:42.831Z,101001.59
2023-04-10T23:41:13.387Z,100994.13
2023-04-10T23:43:43.706Z,101010.75
2023-04-10T23:46:13.969Z,101006.34
2023-04-10T23:48:44.289Z,101007.16
2023-04-10T23:51:14.493Z,101007.63
2023-04-10T23:53:44.773Z,101015.44
2023-04-10T23:56:14.971Z,101018.56
2023-04-10T23:58:45.180Z,101024.59
